KFFA/FFA METAR and TAF weather

Enter ICAO airport designator
Station Type Date Time Source
KFFA METAR 2021/09/23 18:35 UTC NOAA

KFFA 231835Z AUTO 18005KT 10SM SCT013 SCT120 25/24 A2986 RMK AO2 T02520236


Station Type Date Time Source
KFFA Decoded METAR 2021/09/23 18:35 UTC NOAA

Kill Devil Hills, First Flight Airport, NC, United States (KFFA) 36-01N 075-40W
Sep 23, 2021 - 02:35 PM EDT / 2021.09.23 1835 UTC
Wind: from the S (180 degrees) at 6 MPH (5 KT):0
Visibility: 10 mile(s):0
Sky conditions: partly cloudy
Temperature: 77.4 F (25.2 C)
Dew Point: 74.5 F (23.6 C)
Relative Humidity: 90%
Pressure (altimeter): 29.86 in. Hg (1011 hPa)
ob: KFFA 231835Z AUTO 18005KT 10SM SCT013 SCT120 25/24 A2986 RMK AO2 T02520236
cycle: 18

Station Type Date Time Source
KFFA TAF UTC NOAA

Error!

Example: see airport list